createdAt,value
2017-07-03T00:00:52.477Z,1.97
2017-07-03T00:03:20.797Z,2.03
2017-07-03T00:05:49.063Z,1.90
2017-07-03T00:08:18.108Z,2.70
2017-07-03T00:10:46.523Z,3.80
2017-07-03T00:13:14.806Z,4.80
2017-07-03T00:15:43.183Z,6.67
2017-07-03T00:18:11.466Z,6.17
2017-07-03T00:20:39.749Z,6.00
2017-07-03T00:23:08.794Z,5.50
2017-07-03T00:25:37.112Z,5.30
2017-07-03T00:28:05.402Z,5.10
2017-07-03T00:30:33.691Z,5.37
2017-07-03T00:33:02.000Z,5.20
2017-07-03T00:35:30.272Z,5.40
2017-07-03T00:37:58.527Z,4.73
2017-07-03T00:40:26.842Z,4.67
2017-07-03T00:42:55.903Z,4.90
2017-07-03T00:45:24.196Z,4.33
2017-07-03T00:47:53.282Z,4.40
2017-07-03T00:50:21.547Z,4.10
2017-07-03T00:52:49.826Z,3.90
2017-07-03T00:55:18.110Z,4.07
2017-07-03T00:57:46.395Z,3.90
2017-07-03T01:00:14.719Z,3.80
2017-07-03T01:02:43.062Z,4.17
2017-07-03T01:05:11.380Z,3.63
2017-07-03T01:07:40.442Z,4.10
2017-07-03T01:10:08.746Z,3.90
2017-07-03T01:12:37.007Z,3.80
2017-07-03T01:15:05.277Z,4.20
2017-07-03T01:17:33.581Z,3.57
2017-07-03T01:20:01.861Z,3.57
2017-07-03T01:22:30.906Z,3.20
2017-07-03T01:24:59.228Z,3.50
2017-07-03T01:27:27.512Z,3.47
2017-07-03T01:29:55.784Z,3.70
2017-07-03T01:32:24.062Z,3.27
2017-07-03T01:34:52.319Z,3.10
2017-07-03T01:37:20.574Z,3.37
2017-07-03T01:39:48.899Z,3.03
2017-07-03T01:42:17.195Z,3.00
2017-07-03T01:44:45.472Z,3.27
2017-07-03T01:47:13.759Z,3.00
2017-07-03T01:49:42.818Z,2.70
2017-07-03T01:52:11.880Z,3.43
2017-07-03T01:54:40.190Z,3.40
2017-07-03T01:57:08.469Z,3.07
2017-07-03T01:59:36.760Z,3.00
2017-07-03T02:02:05.401Z,2.60
2017-07-03T02:04:33.686Z,2.50
2017-07-03T02:07:01.946Z,2.83
2017-07-03T02:09:30.273Z,2.70
2017-07-03T02:11:58.549Z,2.90
2017-07-03T02:14:26.805Z,2.47
2017-07-03T02:16:56.028Z,2.40
2017-07-03T02:19:25.118Z,2.40
2017-07-03T02:21:53.362Z,2.50
2017-07-03T02:24:21.664Z,2.40
2017-07-03T02:26:49.947Z,2.70
2017-07-03T02:29:18.205Z,2.50
2017-07-03T02:31:46.515Z,2.47
2017-07-03T02:34:15.576Z,2.40
2017-07-03T02:36:43.830Z,2.40
2017-07-03T02:39:12.438Z,2.40
2017-07-03T02:41:40.694Z,2.33
2017-07-03T02:44:08.970Z,2.40
2017-07-03T02:46:37.283Z,2.33
2017-07-03T02:49:05.576Z,1.93
2017-07-03T02:51:33.869Z,2.63
2017-07-03T02:54:02.184Z,2.40
2017-07-03T02:56:31.217Z,2.40
2017-07-03T02:58:59.491Z,2.40
2017-07-03T03:01:27.797Z,2.10
2017-07-03T03:03:56.063Z,2.17
2017-07-03T03:06:24.318Z,1.90
2017-07-03T03:08:52.629Z,2.10
2017-07-03T03:11:20.906Z,2.23
2017-07-03T03:13:49.166Z,1.83
2017-07-03T03:16:17.489Z,2.10
2017-07-03T03:18:45.755Z,2.00
2017-07-03T03:21:14.006Z,1.67
2017-07-03T03:23:42.318Z,2.13
2017-07-03T03:26:11.380Z,1.77
2017-07-03T03:28:39.657Z,2.20
2017-07-03T03:31:08.734Z,1.90
2017-07-03T03:33:37.786Z,2.00
2017-07-03T03:36:06.069Z,1.70
2017-07-03T03:38:35.142Z,2.00
2017-07-03T03:41:03.422Z,1.60
2017-07-03T03:43:32.487Z,1.90
2017-07-03T03:46:01.543Z,2.00
2017-07-03T03:48:29.821Z,2.17
2017-07-03T03:50:58.865Z,1.70
2017-07-03T03:53:27.183Z,2.13
2017-07-03T03:55:55.470Z,1.87
2017-07-03T03:58:23.768Z,1.70
2017-07-03T04:00:52.077Z,2.03
2017-07-03T04:03:20.360Z,1.67
2017-07-03T04:05:48.641Z,1.80
2017-07-03T04:08:16.946Z,2.00
2017-07-03T04:10:45.226Z,1.87
2017-07-03T04:13:13.520Z,1.50
2017-07-03T04:15:41.833Z,1.80
2017-07-03T04:18:10.090Z,1.70
2017-07-03T04:20:38.374Z,1.60
2017-07-03T04:23:06.666Z,1.70
2017-07-03T04:25:34.922Z,1.47
2017-07-03T04:28:03.206Z,1.70
2017-07-03T04:30:32.344Z,1.50
2017-07-03T04:33:00.640Z,1.90
2017-07-03T04:35:28.928Z,1.50
2017-07-03T04:37:57.237Z,1.40
2017-07-03T04:40:25.513Z,1.70
2017-07-03T04:42:53.790Z,1.70
2017-07-03T04:45:22.884Z,1.73
2017-07-03T04:47:51.190Z,1.53
2017-07-03T04:50:19.470Z,1.80
2017-07-03T04:52:47.770Z,1.40
2017-07-03T04:55:16.060Z,1.40
2017-07-03T04:57:44.327Z,1.27
2017-07-03T05:00:12.650Z,1.40
2017-07-03T05:02:40.914Z,1.70
2017-07-03T05:05:09.203Z,1.40
2017-07-03T05:07:37.494Z,1.40
2017-07-03T05:10:05.774Z,1.50
2017-07-03T05:12:34.813Z,1.63
2017-07-03T05:15:03.095Z,1.40
2017-07-03T05:17:31.359Z,1.50
2017-07-03T05:19:59.637Z,1.70
2017-07-03T05:22:28.718Z,1.43
2017-07-03T05:24:57.763Z,1.30
2017-07-03T05:27:26.039Z,1.40
2017-07-03T05:29:54.321Z,1.13
2017-07-03T05:32:22.517Z,1.30
2017-07-03T05:34:50.795Z,1.40
2017-07-03T05:37:19.091Z,1.50
2017-07-03T05:39:48.162Z,1.30
2017-07-03T05:42:17.027Z,1.33
2017-07-03T05:44:46.106Z,1.13
2017-07-03T05:47:14.379Z,1.33
2017-07-03T05:49:43.420Z,1.27
2017-07-03T05:52:11.534Z,1.43
2017-07-03T05:54:39.790Z,1.33
2017-07-03T05:57:08.071Z,1.43
2017-07-03T05:59:36.190Z,1.40
2017-07-03T06:02:05.229Z,1.30
2017-07-03T06:04:33.510Z,1.40
2017-07-03T06:07:01.809Z,1.20
2017-07-03T06:09:30.103Z,1.40
2017-07-03T06:11:58.358Z,1.13
2017-07-03T06:14:26.671Z,1.43
2017-07-03T06:16:54.954Z,1.30
2017-07-03T06:19:23.252Z,1.30
2017-07-03T06:21:51.562Z,1.30
2017-07-03T06:24:19.838Z,1.30
2017-07-03T06:26:48.127Z,1.20
2017-07-03T06:29:16.427Z,1.30
2017-07-03T06:31:45.482Z,1.10
2017-07-03T06:34:13.772Z,1.20
2017-07-03T06:36:42.846Z,1.30
2017-07-03T06:39:11.884Z,1.10
2017-07-03T06:41:40.146Z,1.60
2017-07-03T06:44:08.473Z,1.00
2017-07-03T06:46:36.767Z,1.20
2017-07-03T06:49:05.046Z,1.00
2017-07-03T06:51:33.367Z,1.40
2017-07-03T06:54:01.647Z,1.17
2017-07-03T06:56:29.924Z,1.00
2017-07-03T06:58:58.207Z,1.30
2017-07-03T07:01:27.265Z,1.30
2017-07-03T07:03:55.523Z,1.37
2017-07-03T07:06:23.838Z,1.27
2017-07-03T07:08:52.126Z,1.10
2017-07-03T07:11:20.203Z,1.20
2017-07-03T07:13:48.519Z,1.00
2017-07-03T07:16:16.791Z,1.20
2017-07-03T07:18:45.073Z,1.20
2017-07-03T07:21:13.382Z,1.10
2017-07-03T07:23:41.646Z,1.20
2017-07-03T07:26:09.916Z,1.33
2017-07-03T07:28:38.226Z,1.20
2017-07-03T07:31:06.497Z,1.00
2017-07-03T07:33:35.551Z,1.03
2017-07-03T07:36:03.870Z,1.10
2017-07-03T07:38:32.129Z,1.17
2017-07-03T07:41:00.404Z,1.17
2017-07-03T07:43:28.695Z,1.17
2017-07-03T07:45:56.960Z,1.00
2017-07-03T07:48:25.233Z,1.07
2017-07-03T07:50:54.288Z,1.20
2017-07-03T07:53:22.563Z,1.13
2017-07-03T07:55:50.837Z,1.10
2017-07-03T07:58:19.908Z,1.27
2017-07-03T08:00:48.936Z,1.10
2017-07-03T08:03:17.233Z,1.20
2017-07-03T08:05:45.532Z,1.20
2017-07-03T08:08:13.791Z,1.13
2017-07-03T08:10:42.054Z,1.00
2017-07-03T08:13:10.446Z,1.07
2017-07-03T08:15:38.700Z,1.13
2017-07-03T08:18:06.954Z,0.93
2017-07-03T08:20:35.293Z,1.27
2017-07-03T08:23:03.684Z,1.10
2017-07-03T08:25:31.997Z,1.20
2017-07-03T08:28:01.066Z,1.10
2017-07-03T08:30:30.117Z,1.00
2017-07-03T08:32:58.399Z,1.20
2017-07-03T08:35:26.715Z,1.20
2017-07-03T08:37:55.008Z,1.03
2017-07-03T08:40:23.299Z,1.17
2017-07-03T08:42:52.398Z,0.90
2017-07-03T08:45:20.660Z,1.13
2017-07-03T08:47:48.946Z,1.23
2017-07-03T08:50:17.271Z,1.00
2017-07-03T08:52:45.564Z,1.10
2017-07-03T08:55:13.857Z,1.47
2017-07-03T08:57:42.175Z,1.40
2017-07-03T09:00:10.469Z,1.23
2017-07-03T09:02:38.760Z,1.50
2017-07-03T09:05:07.848Z,2.07
2017-07-03T09:07:36.197Z,1.30
2017-07-03T09:10:05.249Z,1.50
2017-07-03T09:12:33.562Z,1.40
2017-07-03T09:15:01.843Z,1.30
2017-07-03T09:17:30.121Z,1.23
2017-07-03T09:19:58.426Z,1.47
2017-07-03T09:22:26.704Z,1.30
2017-07-03T09:24:54.977Z,1.60
2017-07-03T09:27:23.290Z,1.77
2017-07-03T09:29:52.339Z,1.60
2017-07-03T09:32:20.620Z,1.77
2017-07-03T09:34:48.925Z,1.30
2017-07-03T09:37:17.216Z,1.50
2017-07-03T09:39:45.498Z,1.80
2017-07-03T09:42:13.806Z,1.60
2017-07-03T09:44:42.078Z,1.30
2017-07-03T09:47:10.371Z,1.60
2017-07-03T09:49:38.681Z,1.60
2017-07-03T09:52:06.944Z,1.43
2017-07-03T09:54:35.232Z,1.50
2017-07-03T09:57:03.533Z,1.50
2017-07-03T09:59:31.805Z,1.90
2017-07-03T10:02:00.836Z,1.33
2017-07-03T10:04:29.147Z,1.70
2017-07-03T10:06:58.202Z,1.37
2017-07-03T10:09:26.478Z,1.40
2017-07-03T10:11:55.371Z,1.63
2017-07-03T10:14:23.638Z,1.87
2017-07-03T10:16:51.922Z,1.67
2017-07-03T10:19:20.231Z,1.73
2017-07-03T10:21:49.286Z,1.90
2017-07-03T10:24:17.542Z,1.60
2017-07-03T10:26:45.845Z,1.80
2017-07-03T10:29:14.130Z,1.90
2017-07-03T10:31:42.406Z,2.00
2017-07-03T10:34:10.708Z,1.47
2017-07-03T10:36:39.741Z,1.70
2017-07-03T10:39:08.017Z,2.10
2017-07-03T10:41:36.317Z,2.10
2017-07-03T10:44:05.375Z,1.60
2017-07-03T10:46:33.653Z,2.00
2017-07-03T10:49:02.747Z,1.70
2017-07-03T10:51:31.019Z,1.47
2017-07-03T10:53:59.297Z,1.50
2017-07-03T10:56:27.574Z,1.60
2017-07-03T10:58:55.868Z,1.60
2017-07-03T11:01:24.919Z,1.47
2017-07-03T11:03:53.225Z,1.27
2017-07-03T11:06:21.491Z,1.40
2017-07-03T11:08:49.771Z,1.70
2017-07-03T11:11:18.051Z,1.40
2017-07-03T11:13:46.318Z,1.70
2017-07-03T11:16:14.577Z,1.20
2017-07-03T11:18:42.873Z,1.77
2017-07-03T11:21:11.945Z,1.80
2017-07-03T11:23:40.968Z,1.90
2017-07-03T11:26:09.269Z,1.80
2017-07-03T11:28:37.545Z,1.90
2017-07-03T11:31:06.589Z,1.90
2017-07-03T11:33:34.909Z,1.77
2017-07-03T11:36:03.195Z,1.80
2017-07-03T11:38:31.450Z,1.90
2017-07-03T11:40:59.743Z,2.30
2017-07-03T11:43:28.002Z,1.83
2017-07-03T11:45:56.263Z,1.63
2017-07-03T11:48:24.659Z,1.80
2017-07-03T11:50:52.919Z,1.90
2017-07-03T11:53:21.195Z,1.87
2017-07-03T11:55:49.518Z,1.73
2017-07-03T11:58:18.652Z,1.90
2017-07-03T12:00:46.947Z,1.80
2017-07-03T12:03:15.267Z,1.50
2017-07-03T12:05:43.557Z,1.90
2017-07-03T12:08:12.610Z,1.70
2017-07-03T12:10:40.937Z,2.03
2017-07-03T12:13:09.194Z,2.00
2017-07-03T12:15:37.487Z,2.10
2017-07-03T12:18:05.789Z,1.90
2017-07-03T12:20:34.060Z,2.17
2017-07-03T12:23:02.358Z,1.90
2017-07-03T12:25:30.659Z,2.23
2017-07-03T12:27:59.706Z,1.80
2017-07-03T12:30:27.987Z,2.10
2017-07-03T12:32:56.354Z,2.30
2017-07-03T12:35:25.444Z,2.00
2017-07-03T12:37:53.726Z,2.10
2017-07-03T12:40:22.015Z,2.13
2017-07-03T12:42:50.316Z,1.90
2017-07-03T12:45:18.605Z,1.83
2017-07-03T12:47:46.731Z,2.03
2017-07-03T12:50:15.778Z,2.00
2017-07-03T12:52:44.058Z,2.20
2017-07-03T12:55:13.141Z,2.53
2017-07-03T12:57:42.181Z,1.80
2017-07-03T13:00:10.269Z,1.87
2017-07-03T13:02:39.351Z,2.47
2017-07-03T13:05:08.393Z,2.30
2017-07-03T13:07:36.689Z,2.30
2017-07-03T13:10:05.000Z,2.10
2017-07-03T13:12:34.022Z,1.93
2017-07-03T13:15:02.315Z,2.30
2017-07-03T13:17:30.639Z,2.40
2017-07-03T13:19:58.933Z,2.00
2017-07-03T13:22:27.284Z,2.20
2017-07-03T13:24:55.593Z,2.17
2017-07-03T13:27:23.872Z,2.30
2017-07-03T13:29:52.150Z,2.47
2017-07-03T13:32:20.450Z,2.07
2017-07-03T13:34:49.512Z,2.07
2017-07-03T13:37:17.793Z,2.30
2017-07-03T13:39:46.886Z,2.17
2017-07-03T13:42:15.169Z,2.00
2017-07-03T13:44:43.435Z,2.20
2017-07-03T13:47:11.742Z,2.17
2017-07-03T13:49:40.030Z,2.13
2017-07-03T13:52:08.290Z,2.40
2017-07-03T13:54:36.604Z,2.03
2017-07-03T13:57:04.883Z,2.20
2017-07-03T13:59:33.161Z,2.30
2017-07-03T14:02:02.222Z,2.73
2017-07-03T14:04:30.519Z,2.40
2017-07-03T14:06:58.797Z,2.23
2017-07-03T14:09:29.003Z,2.73
2017-07-03T14:11:57.291Z,2.87
2017-07-03T14:14:25.575Z,2.57
2017-07-03T14:16:54.688Z,2.50
2017-07-03T14:19:22.980Z,2.43
2017-07-03T14:21:51.261Z,2.60
2017-07-03T14:24:19.567Z,2.10
2017-07-03T14:26:47.828Z,2.50
2017-07-03T14:29:16.110Z,2.80
2017-07-03T14:31:44.410Z,2.83
2017-07-03T14:34:12.705Z,2.60
2017-07-03T14:36:41.082Z,2.67
2017-07-03T14:39:09.377Z,2.77
2017-07-03T14:41:38.441Z,2.30
2017-07-03T14:44:07.508Z,2.40
2017-07-03T14:46:35.836Z,2.40
2017-07-03T14:49:04.138Z,2.47
2017-07-03T14:51:33.194Z,2.20
2017-07-03T14:54:01.507Z,2.00
2017-07-03T14:56:29.762Z,2.10
2017-07-03T14:58:58.018Z,2.10
2017-07-03T15:01:26.354Z,2.20
2017-07-03T15:03:54.644Z,2.20
2017-07-03T15:06:22.906Z,2.10
2017-07-03T15:08:51.214Z,2.00
2017-07-03T15:11:19.497Z,1.90
2017-07-03T15:13:47.792Z,1.73
2017-07-03T15:16:16.115Z,1.73
2017-07-03T15:18:44.386Z,2.03
2017-07-03T15:21:13.440Z,1.80
2017-07-03T15:23:41.759Z,2.07
2017-07-03T15:26:10.052Z,2.00
2017-07-03T15:28:39.110Z,2.10
2017-07-03T15:31:07.416Z,2.10
2017-07-03T15:33:35.698Z,1.90
2017-07-03T15:36:03.977Z,2.00
2017-07-03T15:38:32.282Z,2.10
2017-07-03T15:41:00.547Z,1.90
2017-07-03T15:43:28.799Z,1.83
2017-07-03T15:45:57.101Z,2.00
2017-07-03T15:48:25.391Z,1.70
2017-07-03T15:50:53.669Z,1.80
2017-07-03T15:53:21.973Z,1.97
2017-07-03T15:55:51.027Z,2.20
2017-07-03T15:58:19.311Z,2.00
2017-07-03T16:00:48.377Z,2.03
2017-07-03T16:03:17.421Z,1.93
2017-07-03T16:05:45.702Z,1.70
2017-07-03T16:08:14.006Z,1.60
2017-07-03T16:10:42.262Z,1.70
2017-07-03T16:13:10.532Z,2.10
2017-07-03T16:15:38.845Z,1.57
2017-07-03T16:18:07.099Z,2.00
2017-07-03T16:20:35.191Z,1.90
2017-07-03T16:23:03.506Z,2.20
2017-07-03T16:25:31.782Z,2.20
2017-07-03T16:28:00.091Z,1.80
2017-07-03T16:30:28.399Z,1.70
2017-07-03T16:32:56.677Z,1.93
2017-07-03T16:35:25.704Z,1.63
2017-07-03T16:37:54.018Z,1.90
2017-07-03T16:40:23.048Z,1.70
2017-07-03T16:42:51.326Z,2.00
2017-07-03T16:45:19.625Z,1.73
2017-07-03T16:47:47.910Z,1.93
2017-07-03T16:50:16.290Z,1.83
2017-07-03T16:52:44.603Z,1.40
2017-07-03T16:55:13.641Z,1.90
2017-07-03T16:57:41.919Z,1.97
2017-07-03T17:00:10.248Z,1.60
2017-07-03T17:02:38.522Z,1.80
2017-07-03T17:05:06.807Z,1.80
2017-07-03T17:07:35.095Z,1.63
2017-07-03T17:10:03.391Z,1.80
2017-07-03T17:12:31.687Z,1.90
2017-07-03T17:14:59.967Z,1.60
2017-07-03T17:17:29.028Z,1.70
2017-07-03T17:19:58.074Z,1.70
2017-07-03T17:22:26.393Z,1.53
2017-07-03T17:24:54.688Z,1.47
2017-07-03T17:27:23.050Z,1.70
2017-07-03T17:29:51.380Z,1.83
2017-07-03T17:32:19.635Z,1.93
2017-07-03T17:34:47.918Z,1.80
2017-07-03T17:37:16.227Z,2.00
2017-07-03T17:39:44.514Z,2.00
2017-07-03T17:42:12.790Z,1.87
2017-07-03T17:44:41.105Z,1.63
2017-07-03T17:47:09.377Z,1.90
2017-07-03T17:49:38.427Z,1.90
2017-07-03T17:52:06.719Z,1.80
2017-07-03T17:54:35.761Z,2.00
2017-07-03T17:57:04.041Z,1.80
2017-07-03T17:59:33.132Z,2.30
2017-07-03T18:02:02.183Z,2.00
2017-07-03T18:04:30.480Z,1.73
2017-07-03T18:06:59.755Z,2.20
2017-07-03T18:09:28.820Z,1.90
2017-07-03T18:11:57.082Z,2.20
2017-07-03T18:14:25.381Z,1.90
2017-07-03T18:16:53.639Z,1.80
2017-07-03T18:19:21.891Z,1.90
2017-07-03T18:21:50.179Z,1.83
2017-07-03T18:24:18.449Z,1.80
2017-07-03T18:26:46.730Z,2.00
2017-07-03T18:29:15.048Z,2.00
2017-07-03T18:31:43.329Z,2.30
2017-07-03T18:34:11.591Z,2.20
2017-07-03T18:36:39.915Z,2.13
2017-07-03T18:39:08.190Z,2.50
2017-07-03T18:41:36.470Z,2.60
2017-07-03T18:44:04.792Z,3.37
2017-07-03T18:46:33.069Z,2.40
2017-07-03T18:49:01.363Z,2.43
2017-07-03T18:51:29.678Z,2.47
2017-07-03T18:53:57.938Z,2.30
2017-07-03T18:56:26.203Z,2.63
2017-07-03T18:58:54.525Z,2.30
2017-07-03T19:01:23.572Z,2.57
2017-07-03T19:03:51.837Z,2.47
2017-07-03T19:06:20.141Z,2.27
2017-07-03T19:08:49.197Z,2.20
2017-07-03T19:11:18.267Z,2.20
2017-07-03T19:13:46.579Z,2.50
2017-07-03T19:16:14.839Z,2.20
2017-07-03T19:18:43.131Z,2.47
2017-07-03T19:21:11.420Z,2.50
2017-07-03T19:23:39.678Z,2.30
2017-07-03T19:26:08.734Z,2.20
2017-07-03T19:28:37.061Z,2.13
2017-07-03T19:31:05.333Z,2.10
2017-07-03T19:33:33.586Z,2.20
2017-07-03T19:36:01.902Z,2.40
2017-07-03T19:38:30.171Z,2.00
2017-07-03T19:40:59.221Z,2.17
2017-07-03T19:43:27.539Z,2.30
2017-07-03T19:45:55.816Z,2.63
2017-07-03T19:48:24.071Z,2.20
2017-07-03T19:50:52.401Z,2.57
2017-07-03T19:53:21.446Z,2.50
2017-07-03T19:55:49.735Z,2.63
2017-07-03T19:58:18.813Z,2.30
2017-07-03T20:00:47.087Z,2.20
2017-07-03T20:03:15.358Z,2.33
2017-07-03T20:05:43.662Z,2.63
2017-07-03T20:08:11.952Z,2.40
2017-07-03T20:10:41.001Z,2.60
2017-07-03T20:13:09.322Z,2.40
2017-07-03T20:15:37.582Z,2.40
2017-07-03T20:18:05.838Z,2.93
2017-07-03T20:20:34.127Z,3.07
2017-07-03T20:23:02.424Z,2.63
2017-07-03T20:25:31.453Z,2.57
2017-07-03T20:27:59.739Z,2.70
2017-07-03T20:30:28.013Z,2.83
2017-07-03T20:32:56.305Z,2.60
2017-07-03T20:35:24.636Z,2.63
2017-07-03T20:37:53.698Z,2.67
2017-07-03T20:40:21.974Z,3.17
2017-07-03T20:42:50.298Z,2.80
2017-07-03T20:45:18.724Z,2.80
2017-07-03T20:47:47.173Z,2.60
2017-07-03T20:50:16.237Z,3.30
2017-07-03T20:52:44.543Z,3.00
2017-07-03T20:55:12.837Z,4.10
2017-07-03T20:57:41.150Z,4.00
2017-07-03T21:00:09.410Z,4.23
2017-07-03T21:02:37.704Z,4.70
2017-07-03T21:05:06.010Z,3.50
2017-07-03T21:07:35.053Z,3.80
2017-07-03T21:10:03.339Z,3.77
2017-07-03T21:12:31.656Z,3.30
2017-07-03T21:14:59.925Z,3.50
2017-07-03T21:17:28.213Z,2.60
2017-07-03T21:19:56.502Z,2.83
2017-07-03T21:22:25.537Z,2.90
2017-07-03T21:24:53.821Z,2.70
2017-07-03T21:27:22.908Z,2.83
2017-07-03T21:29:51.945Z,2.97
2017-07-03T21:32:20.213Z,2.87
2017-07-03T21:34:48.525Z,2.30
2017-07-03T21:37:16.817Z,2.50
2017-07-03T21:39:45.093Z,2.20
2017-07-03T21:42:13.460Z,2.40
2017-07-03T21:44:41.737Z,2.00
2017-07-03T21:47:10.009Z,2.50
2017-07-03T21:49:39.225Z,3.00
2017-07-03T21:52:07.501Z,2.40
2017-07-03T21:54:35.799Z,2.30
2017-07-03T21:57:04.079Z,2.30
2017-07-03T21:59:33.107Z,1.97
2017-07-03T22:02:01.367Z,2.10
2017-07-03T22:04:29.685Z,2.23
2017-07-03T22:06:57.984Z,2.30
2017-07-03T22:09:26.266Z,1.80
2017-07-03T22:11:54.585Z,2.20
2017-07-03T22:14:22.862Z,1.93
2017-07-03T22:16:51.137Z,2.20
2017-07-03T22:19:19.441Z,2.20
2017-07-03T22:21:48.462Z,1.60
2017-07-03T22:24:16.738Z,1.90
2017-07-03T22:26:45.057Z,2.10
2017-07-03T22:29:13.361Z,2.10
2017-07-03T22:31:41.651Z,2.20
2017-07-03T22:34:10.747Z,1.53
2017-07-03T22:36:39.011Z,2.00
2017-07-03T22:39:07.282Z,1.60
2017-07-03T22:41:35.589Z,1.90
2017-07-03T22:44:03.873Z,1.80
2017-07-03T22:46:32.913Z,1.60
2017-07-03T22:49:01.222Z,2.07
2017-07-03T22:51:29.510Z,1.60
2017-07-03T22:53:57.800Z,2.00
2017-07-03T22:56:26.114Z,1.73
2017-07-03T22:58:54.373Z,1.70
2017-07-03T23:01:22.649Z,1.57
2017-07-03T23:03:50.961Z,1.70
2017-07-03T23:06:20.033Z,2.00
2017-07-03T23:08:48.295Z,1.57
2017-07-03T23:11:16.602Z,1.87
2017-07-03T23:13:44.882Z,1.70
2017-07-03T23:16:13.238Z,1.80
2017-07-03T23:18:41.570Z,1.30
2017-07-03T23:21:09.853Z,1.40
2017-07-03T23:23:38.156Z,1.47
2017-07-03T23:26:06.483Z,1.60
2017-07-03T23:28:34.745Z,1.50
2017-07-03T23:31:03.048Z,1.37
2017-07-03T23:33:32.120Z,1.40
2017-07-03T23:36:00.415Z,1.40
2017-07-03T23:38:28.698Z,1.40
2017-07-03T23:40:57.036Z,1.53
2017-07-03T23:43:25.309Z,1.60
2017-07-03T23:45:53.688Z,1.50
2017-07-03T23:48:21.967Z,1.70
2017-07-03T23:50:50.222Z,1.63
2017-07-03T23:53:18.698Z,1.47
2017-07-03T23:55:47.032Z,1.40
2017-07-03T23:58:15.314Z,1.50
